sensor_id;sensor_type;location;lat;lon;timestamp;P1;durP1;ratioP1;P2;durP2;ratioP2
12363;SDS011;6246;50.826;4.712;2023-03-31T00:00:45;2.27;;;1.63;;
12363;SDS011;6246;50.826;4.712;2023-03-31T00:03:11;2.00;;;1.37;;
12363;SDS011;6246;50.826;4.712;2023-03-31T00:05:45;2.67;;;1.20;;
12363;SDS011;6246;50.826;4.712;2023-03-31T00:08:12;3.43;;;1.47;;
12363;SDS011;6246;50.826;4.712;2023-03-31T00:10:42;1.23;;;1.10;;
12363;SDS011;6246;50.826;4.712;2023-03-31T00:13:09;3.97;;;1.47;;
12363;SDS011;6246;50.826;4.712;2023-03-31T00:15:35;5.13;;;1.60;;
12363;SDS011;6246;50.826;4.712;2023-03-31T00:18:02;2.50;;;1.40;;
12363;SDS011;6246;50.826;4.712;2023-03-31T00:20:28;4.03;;;1.50;;
12363;SDS011;6246;50.826;4.712;2023-03-31T00:22:54;2.60;;;1.37;;
12363;SDS011;6246;50.826;4.712;2023-03-31T00:25:21;3.80;;;1.50;;
12363;SDS011;6246;50.826;4.712;2023-03-31T00:27:48;4.77;;;2.00;;
12363;SDS011;6246;50.826;4.712;2023-03-31T00:30:14;5.77;;;1.47;;
12363;SDS011;6246;50.826;4.712;2023-03-31T00:32:40;2.90;;;1.50;;
12363;SDS011;6246;50.826;4.712;2023-03-31T00:35:07;4.40;;;1.97;;
12363;SDS011;6246;50.826;4.712;2023-03-31T00:37:33;3.23;;;1.70;;
12363;SDS011;6246;50.826;4.712;2023-03-31T00:39:59;3.13;;;1.70;;
12363;SDS011;6246;50.826;4.712;2023-03-31T00:42:25;3.10;;;1.50;;
12363;SDS011;6246;50.826;4.712;2023-03-31T00:47:33;2.87;;;1.40;;
12363;SDS011;6246;50.826;4.712;2023-03-31T00:49:59;3.27;;;1.90;;
12363;SDS011;6246;50.826;4.712;2023-03-31T00:52:33;3.33;;;1.77;;
12363;SDS011;6246;50.826;4.712;2023-03-31T00:55:03;4.13;;;1.90;;
12363;SDS011;6246;50.826;4.712;2023-03-31T00:57:31;1.80;;;1.30;;
12363;SDS011;6246;50.826;4.712;2023-03-31T00:59:58;2.57;;;1.50;;
12363;SDS011;6246;50.826;4.712;2023-03-31T01:02:27;3.00;;;1.63;;
12363;SDS011;6246;50.826;4.712;2023-03-31T01:04:55;4.97;;;1.37;;
12363;SDS011;6246;50.826;4.712;2023-03-31T01:07:42;2.83;;;1.60;;
12363;SDS011;6246;50.826;4.712;2023-03-31T01:10:09;2.33;;;1.43;;
12363;SDS011;6246;50.826;4.712;2023-03-31T01:12:42;2.60;;;1.47;;
12363;SDS011;6246;50.826;4.712;2023-03-31T01:15:09;4.10;;;1.97;;
12363;SDS011;6246;50.826;4.712;2023-03-31T01:17:35;3.07;;;1.57;;
12363;SDS011;6246;50.826;4.712;2023-03-31T01:20:08;3.50;;;1.60;;
12363;SDS011;6246;50.826;4.712;2023-03-31T01:43:43;4.23;;;1.80;;
12363;SDS011;6246;50.826;4.712;2023-03-31T01:46:24;2.50;;;1.47;;
12363;SDS011;6246;50.826;4.712;2023-03-31T01:51:43;4.40;;;2.20;;
12363;SDS011;6246;50.826;4.712;2023-03-31T01:56:48;4.03;;;2.00;;
12363;SDS011;6246;50.826;4.712;2023-03-31T01:59:17;3.50;;;1.77;;
12363;SDS011;6246;50.826;4.712;2023-03-31T02:01:48;3.07;;;1.53;;
12363;SDS011;6246;50.826;4.712;2023-03-31T02:04:17;3.13;;;1.50;;
12363;SDS011;6246;50.826;4.712;2023-03-31T02:06:46;3.90;;;1.87;;
12363;SDS011;6246;50.826;4.712;2023-03-31T02:09:18;3.57;;;1.43;;
12363;SDS011;6246;50.826;4.712;2023-03-31T02:11:46;2.37;;;1.40;;
12363;SDS011;6246;50.826;4.712;2023-03-31T02:14:14;4.63;;;1.77;;
12363;SDS011;6246;50.826;4.712;2023-03-31T02:16:43;4.50;;;1.73;;
12363;SDS011;6246;50.826;4.712;2023-03-31T02:19:11;3.03;;;1.67;;
12363;SDS011;6246;50.826;4.712;2023-03-31T02:21:42;3.17;;;1.50;;
12363;SDS011;6246;50.826;4.712;2023-03-31T02:24:10;2.20;;;1.33;;
12363;SDS011;6246;50.826;4.712;2023-03-31T02:26:41;4.73;;;1.50;;
12363;SDS011;6246;50.826;4.712;2023-03-31T02:29:10;2.63;;;1.50;;
12363;SDS011;6246;50.826;4.712;2023-03-31T02:31:39;2.77;;;1.40;;
12363;SDS011;6246;50.826;4.712;2023-03-31T02:34:06;6.10;;;1.87;;
12363;SDS011;6246;50.826;4.712;2023-03-31T02:36:33;3.47;;;1.70;;
12363;SDS011;6246;50.826;4.712;2023-03-31T02:39:02;4.40;;;1.87;;
12363;SDS011;6246;50.826;4.712;2023-03-31T02:41:29;4.30;;;1.63;;
12363;SDS011;6246;50.826;4.712;2023-03-31T02:43:55;3.27;;;1.60;;
12363;SDS011;6246;50.826;4.712;2023-03-31T02:46:21;3.37;;;1.33;;
12363;SDS011;6246;50.826;4.712;2023-03-31T02:48:48;2.80;;;1.43;;
12363;SDS011;6246;50.826;4.712;2023-03-31T02:51:28;2.53;;;1.47;;
12363;SDS011;6246;50.826;4.712;2023-03-31T02:54:15;2.60;;;1.17;;
12363;SDS011;6246;50.826;4.712;2023-03-31T03:01:52;3.33;;;1.47;;
12363;SDS011;6246;50.826;4.712;2023-03-31T03:12:16;3.00;;;1.70;;
12363;SDS011;6246;50.826;4.712;2023-03-31T03:17:29;2.80;;;1.40;;
12363;SDS011;6246;50.826;4.712;2023-03-31T03:20:00;2.47;;;1.40;;
12363;SDS011;6246;50.826;4.712;2023-03-31T03:22:31;1.73;;;1.10;;
12363;SDS011;6246;50.826;4.712;2023-03-31T03:24:57;1.90;;;1.10;;
12363;SDS011;6246;50.826;4.712;2023-03-31T03:27:23;2.00;;;1.00;;
12363;SDS011;6246;50.826;4.712;2023-03-31T03:29:49;1.17;;;0.90;;
12363;SDS011;6246;50.826;4.712;2023-03-31T03:32:15;2.13;;;1.00;;
12363;SDS011;6246;50.826;4.712;2023-03-31T03:34:42;1.20;;;0.83;;
12363;SDS011;6246;50.826;4.712;2023-03-31T03:37:08;1.30;;;0.97;;
12363;SDS011;6246;50.826;4.712;2023-03-31T03:39:34;1.90;;;1.20;;
12363;SDS011;6246;50.826;4.712;2023-03-31T03:42:00;1.30;;;1.10;;
12363;SDS011;6246;50.826;4.712;2023-03-31T03:44:26;3.10;;;1.60;;
12363;SDS011;6246;50.826;4.712;2023-03-31T03:46:52;0.90;;;0.80;;
12363;SDS011;6246;50.826;4.712;2023-03-31T03:49:18;1.87;;;1.10;;
12363;SDS011;6246;50.826;4.712;2023-03-31T03:51:44;1.50;;;1.20;;
12363;SDS011;6246;50.826;4.712;2023-03-31T03:54:10;2.00;;;1.10;;
12363;SDS011;6246;50.826;4.712;2023-03-31T03:56:36;1.83;;;1.33;;
12363;SDS011;6246;50.826;4.712;2023-03-31T03:59:02;2.00;;;1.10;;
12363;SDS011;6246;50.826;4.712;2023-03-31T04:01:28;1.83;;;0.97;;
12363;SDS011;6246;50.826;4.712;2023-03-31T04:03:55;1.70;;;1.37;;
12363;SDS011;6246;50.826;4.712;2023-03-31T04:06:21;2.00;;;1.10;;
12363;SDS011;6246;50.826;4.712;2023-03-31T04:08:47;2.07;;;1.10;;
12363;SDS011;6246;50.826;4.712;2023-03-31T04:11:14;1.93;;;1.03;;
12363;SDS011;6246;50.826;4.712;2023-03-31T04:13:44;1.27;;;0.90;;
12363;SDS011;6246;50.826;4.712;2023-03-31T04:16:10;2.60;;;1.10;;
12363;SDS011;6246;50.826;4.712;2023-03-31T04:18:37;1.27;;;1.00;;
12363;SDS011;6246;50.826;4.712;2023-03-31T04:21:07;1.97;;;1.10;;
12363;SDS011;6246;50.826;4.712;2023-03-31T04:23:36;2.47;;;1.00;;
12363;SDS011;6246;50.826;4.712;2023-03-31T04:26:02;0.97;;;0.87;;
12363;SDS011;6246;50.826;4.712;2023-03-31T04:28:33;1.20;;;1.10;;
12363;SDS011;6246;50.826;4.712;2023-03-31T04:30:59;0.50;;;0.50;;
12363;SDS011;6246;50.826;4.712;2023-03-31T04:33:26;0.83;;;0.77;;
12363;SDS011;6246;50.826;4.712;2023-03-31T04:35:52;0.70;;;0.70;;
12363;SDS011;6246;50.826;4.712;2023-03-31T04:38:19;1.93;;;1.10;;
12363;SDS011;6246;50.826;4.712;2023-03-31T04:40:46;1.03;;;0.90;;
12363;SDS011;6246;50.826;4.712;2023-03-31T04:43:13;2.00;;;0.97;;
12363;SDS011;6246;50.826;4.712;2023-03-31T04:45:39;2.67;;;1.10;;
12363;SDS011;6246;50.826;4.712;2023-03-31T04:48:06;2.70;;;1.30;;
12363;SDS011;6246;50.826;4.712;2023-03-31T04:50:32;1.50;;;0.97;;
12363;SDS011;6246;50.826;4.712;2023-03-31T04:52:58;1.43;;;0.80;;
12363;SDS011;6246;50.826;4.712;2023-03-31T04:55:24;2.17;;;1.17;;
12363;SDS011;6246;50.826;4.712;2023-03-31T04:57:51;1.27;;;0.93;;
12363;SDS011;6246;50.826;4.712;2023-03-31T05:00:17;1.67;;;1.13;;
12363;SDS011;6246;50.826;4.712;2023-03-31T05:02:43;1.87;;;1.27;;
12363;SDS011;6246;50.826;4.712;2023-03-31T05:05:09;1.37;;;1.20;;
12363;SDS011;6246;50.826;4.712;2023-03-31T05:07:36;1.93;;;1.17;;
12363;SDS011;6246;50.826;4.712;2023-03-31T05:10:02;1.30;;;0.90;;
12363;SDS011;6246;50.826;4.712;2023-03-31T05:12:28;2.33;;;1.00;;
12363;SDS011;6246;50.826;4.712;2023-03-31T05:14:54;2.63;;;1.17;;
12363;SDS011;6246;50.826;4.712;2023-03-31T05:17:20;3.40;;;1.17;;
12363;SDS011;6246;50.826;4.712;2023-03-31T05:19:46;2.07;;;1.13;;
12363;SDS011;6246;50.826;4.712;2023-03-31T05:22:12;1.90;;;1.20;;
12363;SDS011;6246;50.826;4.712;2023-03-31T05:24:38;1.70;;;1.10;;
12363;SDS011;6246;50.826;4.712;2023-03-31T05:27:05;2.17;;;1.20;;
12363;SDS011;6246;50.826;4.712;2023-03-31T05:29:31;2.13;;;0.97;;
12363;SDS011;6246;50.826;4.712;2023-03-31T05:31:57;2.23;;;1.40;;
12363;SDS011;6246;50.826;4.712;2023-03-31T05:34:23;1.47;;;1.10;;
12363;SDS011;6246;50.826;4.712;2023-03-31T05:36:49;2.17;;;1.20;;
12363;SDS011;6246;50.826;4.712;2023-03-31T05:39:17;1.70;;;1.30;;
12363;SDS011;6246;50.826;4.712;2023-03-31T05:41:43;1.83;;;1.27;;
12363;SDS011;6246;50.826;4.712;2023-03-31T05:44:10;1.90;;;1.20;;
12363;SDS011;6246;50.826;4.712;2023-03-31T05:46:36;1.33;;;1.10;;
12363;SDS011;6246;50.826;4.712;2023-03-31T05:49:02;2.17;;;1.23;;
12363;SDS011;6246;50.826;4.712;2023-03-31T05:51:28;1.70;;;0.97;;
12363;SDS011;6246;50.826;4.712;2023-03-31T05:53:54;2.17;;;1.10;;
12363;SDS011;6246;50.826;4.712;2023-03-31T05:56:20;3.10;;;1.50;;
12363;SDS011;6246;50.826;4.712;2023-03-31T05:58:47;2.70;;;1.30;;
12363;SDS011;6246;50.826;4.712;2023-03-31T06:01:13;1.13;;;0.90;;
12363;SDS011;6246;50.826;4.712;2023-03-31T06:03:49;1.43;;;0.97;;
12363;SDS011;6246;50.826;4.712;2023-03-31T06:06:15;1.83;;;1.10;;
12363;SDS011;6246;50.826;4.712;2023-03-31T06:08:42;3.30;;;1.17;;
12363;SDS011;6246;50.826;4.712;2023-03-31T06:11:10;1.10;;;1.00;;
12363;SDS011;6246;50.826;4.712;2023-03-31T06:13:36;1.20;;;0.90;;
12363;SDS011;6246;50.826;4.712;2023-03-31T06:16:03;1.93;;;1.13;;
12363;SDS011;6246;50.826;4.712;2023-03-31T06:18:30;1.80;;;1.33;;
12363;SDS011;6246;50.826;4.712;2023-03-31T06:20:56;1.50;;;1.00;;
12363;SDS011;6246;50.826;4.712;2023-03-31T06:23:23;2.20;;;1.37;;
12363;SDS011;6246;50.826;4.712;2023-03-31T06:25:49;2.23;;;1.33;;
12363;SDS011;6246;50.826;4.712;2023-03-31T06:28:15;2.40;;;1.23;;
12363;SDS011;6246;50.826;4.712;2023-03-31T06:30:41;2.63;;;1.40;;
12363;SDS011;6246;50.826;4.712;2023-03-31T06:33:08;1.77;;;1.43;;
12363;SDS011;6246;50.826;4.712;2023-03-31T06:35:36;1.83;;;1.37;;
12363;SDS011;6246;50.826;4.712;2023-03-31T06:38:03;2.47;;;1.70;;
12363;SDS011;6246;50.826;4.712;2023-03-31T06:40:29;1.93;;;0.87;;
12363;SDS011;6246;50.826;4.712;2023-03-31T06:42:55;2.60;;;1.23;;
12363;SDS011;6246;50.826;4.712;2023-03-31T06:45:21;1.20;;;1.10;;
12363;SDS011;6246;50.826;4.712;2023-03-31T06:47:47;0.87;;;0.80;;
12363;SDS011;6246;50.826;4.712;2023-03-31T06:50:13;3.23;;;1.37;;
12363;SDS011;6246;50.826;4.712;2023-03-31T06:52:39;27.30;;;3.13;;
12363;SDS011;6246;50.826;4.712;2023-03-31T06:55:05;12.40;;;2.70;;
12363;SDS011;6246;50.826;4.712;2023-03-31T06:57:31;18.60;;;2.80;;
12363;SDS011;6246;50.826;4.712;2023-03-31T06:59:58;12.03;;;2.60;;
12363;SDS011;6246;50.826;4.712;2023-03-31T07:02:24;10.60;;;2.23;;
12363;SDS011;6246;50.826;4.712;2023-03-31T07:04:50;4.03;;;2.00;;
12363;SDS011;6246;50.826;4.712;2023-03-31T07:07:16;4.63;;;1.23;;
12363;SDS011;6246;50.826;4.712;2023-03-31T07:09:42;2.67;;;1.37;;
12363;SDS011;6246;50.826;4.712;2023-03-31T07:12:09;5.93;;;1.93;;
12363;SDS011;6246;50.826;4.712;2023-03-31T07:14:35;4.83;;;1.80;;
12363;SDS011;6246;50.826;4.712;2023-03-31T07:17:01;4.07;;;1.50;;
12363;SDS011;6246;50.826;4.712;2023-03-31T07:19:27;2.93;;;1.53;;
12363;SDS011;6246;50.826;4.712;2023-03-31T07:21:53;5.73;;;1.70;;
12363;SDS011;6246;50.826;4.712;2023-03-31T07:24:20;8.10;;;2.40;;
12363;SDS011;6246;50.826;4.712;2023-03-31T07:26:46;3.67;;;1.50;;
12363;SDS011;6246;50.826;4.712;2023-03-31T07:29:13;2.87;;;1.67;;
12363;SDS011;6246;50.826;4.712;2023-03-31T07:31:39;7.10;;;2.10;;
12363;SDS011;6246;50.826;4.712;2023-03-31T07:34:05;8.50;;;2.37;;
12363;SDS011;6246;50.826;4.712;2023-03-31T07:36:31;6.33;;;2.30;;
12363;SDS011;6246;50.826;4.712;2023-03-31T07:38:57;4.77;;;2.10;;
12363;SDS011;6246;50.826;4.712;2023-03-31T07:41:23;4.27;;;1.90;;
12363;SDS011;6246;50.826;4.712;2023-03-31T07:43:50;6.83;;;2.40;;
12363;SDS011;6246;50.826;4.712;2023-03-31T07:46:18;4.50;;;2.30;;
12363;SDS011;6246;50.826;4.712;2023-03-31T07:48:44;4.77;;;1.97;;
12363;SDS011;6246;50.826;4.712;2023-03-31T07:51:11;4.83;;;1.70;;
12363;SDS011;6246;50.826;4.712;2023-03-31T07:53:37;4.00;;;2.10;;
12363;SDS011;6246;50.826;4.712;2023-03-31T07:56:04;4.67;;;2.30;;
12363;SDS011;6246;50.826;4.712;2023-03-31T07:58:30;5.37;;;2.20;;
12363;SDS011;6246;50.826;4.712;2023-03-31T08:00:56;4.57;;;2.67;;
12363;SDS011;6246;50.826;4.712;2023-03-31T08:03:22;3.63;;;2.10;;
12363;SDS011;6246;50.826;4.712;2023-03-31T08:05:51;7.17;;;2.50;;
12363;SDS011;6246;50.826;4.712;2023-03-31T08:08:17;4.37;;;1.83;;
12363;SDS011;6246;50.826;4.712;2023-03-31T08:10:43;4.63;;;2.00;;
12363;SDS011;6246;50.826;4.712;2023-03-31T08:13:09;5.47;;;2.23;;
12363;SDS011;6246;50.826;4.712;2023-03-31T08:15:35;7.23;;;2.50;;
12363;SDS011;6246;50.826;4.712;2023-03-31T08:18:02;4.83;;;2.23;;
12363;SDS011;6246;50.826;4.712;2023-03-31T08:20:28;6.17;;;2.80;;
12363;SDS011;6246;50.826;4.712;2023-03-31T08:22:54;5.57;;;2.40;;
12363;SDS011;6246;50.826;4.712;2023-03-31T08:25:20;6.47;;;2.60;;
12363;SDS011;6246;50.826;4.712;2023-03-31T08:27:47;5.90;;;2.47;;
12363;SDS011;6246;50.826;4.712;2023-03-31T08:30:15;5.63;;;2.67;;
12363;SDS011;6246;50.826;4.712;2023-03-31T08:32:42;5.80;;;2.37;;
12363;SDS011;6246;50.826;4.712;2023-03-31T08:35:08;5.43;;;2.60;;
12363;SDS011;6246;50.826;4.712;2023-03-31T08:37:35;6.80;;;2.43;;
12363;SDS011;6246;50.826;4.712;2023-03-31T08:40:01;7.47;;;2.60;;
12363;SDS011;6246;50.826;4.712;2023-03-31T08:45:05;5.37;;;2.60;;
12363;SDS011;6246;50.826;4.712;2023-03-31T08:47:34;5.97;;;2.47;;
12363;SDS011;6246;50.826;4.712;2023-03-31T08:50:06;5.10;;;2.53;;
12363;SDS011;6246;50.826;4.712;2023-03-31T08:52:41;6.70;;;2.53;;
12363;SDS011;6246;50.826;4.712;2023-03-31T08:55:12;4.70;;;1.93;;
12363;SDS011;6246;50.826;4.712;2023-03-31T08:57:53;3.30;;;2.00;;
12363;SDS011;6246;50.826;4.712;2023-03-31T09:00:20;6.40;;;2.23;;
12363;SDS011;6246;50.826;4.712;2023-03-31T09:03:02;7.37;;;2.60;;
12363;SDS011;6246;50.826;4.712;2023-03-31T09:05:36;6.07;;;2.77;;
12363;SDS011;6246;50.826;4.712;2023-03-31T09:10:56;5.87;;;2.70;;
12363;SDS011;6246;50.826;4.712;2023-03-31T09:18:35;6.30;;;2.37;;
12363;SDS011;6246;50.826;4.712;2023-03-31T09:21:21;4.20;;;2.10;;
12363;SDS011;6246;50.826;4.712;2023-03-31T09:23:52;4.47;;;2.50;;
12363;SDS011;6246;50.826;4.712;2023-03-31T09:28:47;8.33;;;2.50;;
12363;SDS011;6246;50.826;4.712;2023-03-31T09:31:14;5.87;;;2.00;;
12363;SDS011;6246;50.826;4.712;2023-03-31T09:33:43;7.37;;;2.63;;
12363;SDS011;6246;50.826;4.712;2023-03-31T09:36:16;4.67;;;1.97;;
12363;SDS011;6246;50.826;4.712;2023-03-31T09:38:43;6.80;;;2.60;;
12363;SDS011;6246;50.826;4.712;2023-03-31T09:41:10;7.93;;;2.60;;
12363;SDS011;6246;50.826;4.712;2023-03-31T09:43:36;6.30;;;2.77;;
12363;SDS011;6246;50.826;4.712;2023-03-31T09:46:03;12.47;;;2.60;;
12363;SDS011;6246;50.826;4.712;2023-03-31T09:48:32;5.93;;;2.23;;
12363;SDS011;6246;50.826;4.712;2023-03-31T09:51:04;5.80;;;2.97;;
12363;SDS011;6246;50.826;4.712;2023-03-31T09:56:01;5.30;;;2.10;;
12363;SDS011;6246;50.826;4.712;2023-03-31T09:58:27;6.23;;;2.30;;
12363;SDS011;6246;50.826;4.712;2023-03-31T10:01:01;5.50;;;2.30;;
12363;SDS011;6246;50.826;4.712;2023-03-31T10:03:28;4.60;;;2.33;;
12363;SDS011;6246;50.826;4.712;2023-03-31T10:06:00;5.07;;;2.27;;
12363;SDS011;6246;50.826;4.712;2023-03-31T10:08:30;7.13;;;3.03;;
12363;SDS011;6246;50.826;4.712;2023-03-31T10:10:57;7.57;;;2.37;;
12363;SDS011;6246;50.826;4.712;2023-03-31T10:13:38;3.63;;;2.33;;
12363;SDS011;6246;50.826;4.712;2023-03-31T10:16:06;7.40;;;3.17;;
12363;SDS011;6246;50.826;4.712;2023-03-31T10:18:36;9.27;;;2.57;;
12363;SDS011;6246;50.826;4.712;2023-03-31T10:21:04;5.73;;;2.93;;
12363;SDS011;6246;50.826;4.712;2023-03-31T10:23:30;6.53;;;3.03;;
12363;SDS011;6246;50.826;4.712;2023-03-31T10:25:56;5.77;;;2.67;;
12363;SDS011;6246;50.826;4.712;2023-03-31T10:28:23;6.67;;;3.00;;
12363;SDS011;6246;50.826;4.712;2023-03-31T10:30:53;8.53;;;3.47;;
12363;SDS011;6246;50.826;4.712;2023-03-31T10:33:22;10.87;;;3.27;;
12363;SDS011;6246;50.826;4.712;2023-03-31T10:35:49;10.53;;;3.20;;
12363;SDS011;6246;50.826;4.712;2023-03-31T10:38:26;8.10;;;3.30;;
12363;SDS011;6246;50.826;4.712;2023-03-31T10:40:54;7.60;;;2.80;;
12363;SDS011;6246;50.826;4.712;2023-03-31T10:46:02;8.03;;;2.93;;
12363;SDS011;6246;50.826;4.712;2023-03-31T10:50:59;7.97;;;2.73;;
12363;SDS011;6246;50.826;4.712;2023-03-31T10:53:25;6.57;;;2.87;;
12363;SDS011;6246;50.826;4.712;2023-03-31T11:16:51;8.37;;;2.83;;
12363;SDS011;6246;50.826;4.712;2023-03-31T11:19:39;6.10;;;2.80;;
12363;SDS011;6246;50.826;4.712;2023-03-31T11:22:15;7.87;;;3.07;;
12363;SDS011;6246;50.826;4.712;2023-03-31T11:24:48;5.43;;;2.37;;
12363;SDS011;6246;50.826;4.712;2023-03-31T11:30:45;7.13;;;2.83;;
12363;SDS011;6246;50.826;4.712;2023-03-31T11:38:39;6.13;;;2.30;;
12363;SDS011;6246;50.826;4.712;2023-03-31T11:46:16;8.43;;;2.90;;
12363;SDS011;6246;50.826;4.712;2023-03-31T11:49:00;6.10;;;2.60;;
12363;SDS011;6246;50.826;4.712;2023-03-31T11:53:54;4.73;;;2.53;;
12363;SDS011;6246;50.826;4.712;2023-03-31T11:56:22;9.17;;;3.20;;
12363;SDS011;6246;50.826;4.712;2023-03-31T11:58:52;4.63;;;2.27;;
12363;SDS011;6246;50.826;4.712;2023-03-31T12:06:32;7.73;;;3.13;;
12363;SDS011;6246;50.826;4.712;2023-03-31T12:11:55;6.67;;;2.77;;
12363;SDS011;6246;50.826;4.712;2023-03-31T12:14:33;6.60;;;2.60;;
12363;SDS011;6246;50.826;4.712;2023-03-31T12:17:11;7.13;;;3.03;;
12363;SDS011;6246;50.826;4.712;2023-03-31T12:19:46;4.07;;;2.30;;
12363;SDS011;6246;50.826;4.712;2023-03-31T12:22:17;6.30;;;2.53;;
12363;SDS011;6246;50.826;4.712;2023-03-31T12:24:44;6.47;;;2.23;;
12363;SDS011;6246;50.826;4.712;2023-03-31T12:27:18;9.20;;;2.90;;
12363;SDS011;6246;50.826;4.712;2023-03-31T12:32:29;4.27;;;2.30;;
12363;SDS011;6246;50.826;4.712;2023-03-31T12:37:52;5.23;;;2.37;;
12363;SDS011;6246;50.826;4.712;2023-03-31T12:50:35;5.73;;;2.47;;
12363;SDS011;6246;50.826;4.712;2023-03-31T12:55:53;4.87;;;2.10;;
12363;SDS011;6246;50.826;4.712;2023-03-31T13:04:16;6.47;;;2.33;;
12363;SDS011;6246;50.826;4.712;2023-03-31T13:06:47;5.87;;;2.23;;
12363;SDS011;6246;50.826;4.712;2023-03-31T13:11:41;5.90;;;2.40;;
12363;SDS011;6246;50.826;4.712;2023-03-31T13:16:43;5.27;;;2.40;;
12363;SDS011;6246;50.826;4.712;2023-03-31T13:19:11;5.70;;;2.50;;
12363;SDS011;6246;50.826;4.712;2023-03-31T13:21:50;4.00;;;2.10;;
12363;SDS011;6246;50.826;4.712;2023-03-31T13:24:19;6.07;;;2.27;;
12363;SDS011;6246;50.826;4.712;2023-03-31T13:26:46;2.97;;;1.87;;
12363;SDS011;6246;50.826;4.712;2023-03-31T13:34:35;5.93;;;2.00;;
12363;SDS011;6246;50.826;4.712;2023-03-31T13:39:58;5.33;;;2.17;;
12363;SDS011;6246;50.826;4.712;2023-03-31T13:45:32;3.83;;;1.80;;
12363;SDS011;6246;50.826;4.712;2023-03-31T13:48:19;4.13;;;1.97;;
12363;SDS011;6246;50.826;4.712;2023-03-31T13:53:55;5.33;;;2.10;;
12363;SDS011;6246;50.826;4.712;2023-03-31T14:07:06;4.57;;;2.03;;
12363;SDS011;6246;50.826;4.712;2023-03-31T14:09:34;4.60;;;2.17;;
12363;SDS011;6246;50.826;4.712;2023-03-31T14:12:00;2.93;;;2.07;;
12363;SDS011;6246;50.826;4.712;2023-03-31T14:14:43;4.63;;;1.77;;
12363;SDS011;6246;50.826;4.712;2023-03-31T14:17:09;5.93;;;2.30;;
12363;SDS011;6246;50.826;4.712;2023-03-31T14:29:56;4.13;;;1.90;;
12363;SDS011;6246;50.826;4.712;2023-03-31T14:38:14;3.10;;;1.60;;
12363;SDS011;6246;50.826;4.712;2023-03-31T14:40:43;4.50;;;1.70;;
12363;SDS011;6246;50.826;4.712;2023-03-31T14:43:27;1.50;;;1.30;;
12363;SDS011;6246;50.826;4.712;2023-03-31T14:46:00;4.50;;;1.53;;
12363;SDS011;6246;50.826;4.712;2023-03-31T14:48:31;3.03;;;1.83;;
12363;SDS011;6246;50.826;4.712;2023-03-31T14:50:59;4.20;;;1.43;;
12363;SDS011;6246;50.826;4.712;2023-03-31T14:53:25;2.50;;;1.43;;
12363;SDS011;6246;50.826;4.712;2023-03-31T14:55:54;3.37;;;1.40;;
12363;SDS011;6246;50.826;4.712;2023-03-31T14:58:25;2.60;;;1.17;;
12363;SDS011;6246;50.826;4.712;2023-03-31T15:00:53;3.93;;;1.53;;
12363;SDS011;6246;50.826;4.712;2023-03-31T15:03:19;3.77;;;1.40;;
12363;SDS011;6246;50.826;4.712;2023-03-31T15:05:45;1.90;;;1.50;;
12363;SDS011;6246;50.826;4.712;2023-03-31T15:08:19;5.37;;;1.70;;
12363;SDS011;6246;50.826;4.712;2023-03-31T15:10:51;3.87;;;1.20;;
12363;SDS011;6246;50.826;4.712;2023-03-31T15:13:30;2.70;;;1.10;;
12363;SDS011;6246;50.826;4.712;2023-03-31T15:15:57;2.70;;;1.30;;
12363;SDS011;6246;50.826;4.712;2023-03-31T15:18:24;2.73;;;1.20;;
12363;SDS011;6246;50.826;4.712;2023-03-31T15:20:51;3.07;;;1.50;;
12363;SDS011;6246;50.826;4.712;2023-03-31T15:23:21;2.07;;;1.27;;
12363;SDS011;6246;50.826;4.712;2023-03-31T15:25:58;2.83;;;1.10;;
12363;SDS011;6246;50.826;4.712;2023-03-31T15:28:30;3.57;;;1.50;;
12363;SDS011;6246;50.826;4.712;2023-03-31T15:30:58;4.33;;;1.70;;
12363;SDS011;6246;50.826;4.712;2023-03-31T15:33:28;4.53;;;1.50;;
12363;SDS011;6246;50.826;4.712;2023-03-31T15:35:56;1.93;;;1.20;;
12363;SDS011;6246;50.826;4.712;2023-03-31T15:38:23;4.13;;;1.13;;
12363;SDS011;6246;50.826;4.712;2023-03-31T15:40:52;4.23;;;1.27;;
12363;SDS011;6246;50.826;4.712;2023-03-31T15:45:58;3.53;;;1.50;;
12363;SDS011;6246;50.826;4.712;2023-03-31T15:48:48;2.50;;;1.20;;
12363;SDS011;6246;50.826;4.712;2023-03-31T15:51:16;4.07;;;1.50;;
12363;SDS011;6246;50.826;4.712;2023-03-31T15:53:44;4.57;;;1.57;;
12363;SDS011;6246;50.826;4.712;2023-03-31T15:56:56;2.37;;;1.10;;
12363;SDS011;6246;50.826;4.712;2023-03-31T15:58:57;3.33;;;1.23;;
12363;SDS011;6246;50.826;4.712;2023-03-31T16:01:28;3.33;;;1.63;;
12363;SDS011;6246;50.826;4.712;2023-03-31T16:03:56;1.63;;;1.20;;
12363;SDS011;6246;50.826;4.712;2023-03-31T16:06:28;2.30;;;1.10;;
12363;SDS011;6246;50.826;4.712;2023-03-31T16:09:01;2.17;;;1.10;;
12363;SDS011;6246;50.826;4.712;2023-03-31T16:14:00;3.10;;;0.90;;
12363;SDS011;6246;50.826;4.712;2023-03-31T16:16:30;3.37;;;1.07;;
12363;SDS011;6246;50.826;4.712;2023-03-31T16:19:07;2.27;;;0.97;;
12363;SDS011;6246;50.826;4.712;2023-03-31T16:21:52;2.60;;;1.00;;
12363;SDS011;6246;50.826;4.712;2023-03-31T16:24:19;2.27;;;1.10;;
12363;SDS011;6246;50.826;4.712;2023-03-31T16:26:46;3.53;;;1.50;;
12363;SDS011;6246;50.826;4.712;2023-03-31T16:29:22;2.67;;;1.17;;
12363;SDS011;6246;50.826;4.712;2023-03-31T16:31:48;3.17;;;1.00;;
12363;SDS011;6246;50.826;4.712;2023-03-31T16:34:14;3.00;;;1.10;;
12363;SDS011;6246;50.826;4.712;2023-03-31T16:36:40;3.33;;;1.20;;
12363;SDS011;6246;50.826;4.712;2023-03-31T16:39:06;4.30;;;1.27;;
12363;SDS011;6246;50.826;4.712;2023-03-31T16:41:33;2.97;;;1.03;;
12363;SDS011;6246;50.826;4.712;2023-03-31T16:44:00;3.00;;;1.07;;
12363;SDS011;6246;50.826;4.712;2023-03-31T16:46:27;1.63;;;1.10;;
12363;SDS011;6246;50.826;4.712;2023-03-31T16:48:53;1.43;;;0.97;;
12363;SDS011;6246;50.826;4.712;2023-03-31T16:51:19;3.93;;;0.90;;
12363;SDS011;6246;50.826;4.712;2023-03-31T16:53:46;2.43;;;1.10;;
12363;SDS011;6246;50.826;4.712;2023-03-31T16:56:13;2.60;;;1.07;;
12363;SDS011;6246;50.826;4.712;2023-03-31T16:58:40;5.23;;;1.33;;
12363;SDS011;6246;50.826;4.712;2023-03-31T17:01:06;3.07;;;1.37;;
12363;SDS011;6246;50.826;4.712;2023-03-31T17:03:33;7.27;;;1.60;;
12363;SDS011;6246;50.826;4.712;2023-03-31T17:06:05;6.63;;;1.47;;
12363;SDS011;6246;50.826;4.712;2023-03-31T17:08:31;4.40;;;1.60;;
12363;SDS011;6246;50.826;4.712;2023-03-31T17:11:02;3.67;;;1.33;;
12363;SDS011;6246;50.826;4.712;2023-03-31T17:13:29;4.20;;;1.33;;
12363;SDS011;6246;50.826;4.712;2023-03-31T17:15:56;4.57;;;1.53;;
12363;SDS011;6246;50.826;4.712;2023-03-31T17:18:23;5.53;;;1.60;;
12363;SDS011;6246;50.826;4.712;2023-03-31T17:20:49;5.80;;;1.47;;
12363;SDS011;6246;50.826;4.712;2023-03-31T17:23:17;6.40;;;1.63;;
12363;SDS011;6246;50.826;4.712;2023-03-31T17:25:51;4.80;;;1.53;;
12363;SDS011;6246;50.826;4.712;2023-03-31T17:28:17;2.93;;;1.10;;
12363;SDS011;6246;50.826;4.712;2023-03-31T17:30:43;4.33;;;1.80;;
12363;SDS011;6246;50.826;4.712;2023-03-31T17:33:12;5.17;;;1.13;;
12363;SDS011;6246;50.826;4.712;2023-03-31T17:35:38;4.40;;;1.40;;
12363;SDS011;6246;50.826;4.712;2023-03-31T17:38:04;3.27;;;1.00;;
12363;SDS011;6246;50.826;4.712;2023-03-31T17:40:30;3.60;;;1.10;;
12363;SDS011;6246;50.826;4.712;2023-03-31T17:42:57;3.83;;;1.43;;
12363;SDS011;6246;50.826;4.712;2023-03-31T17:45:24;5.87;;;1.57;;
12363;SDS011;6246;50.826;4.712;2023-03-31T17:47:50;2.80;;;1.13;;
12363;SDS011;6246;50.826;4.712;2023-03-31T17:50:16;2.90;;;1.40;;
12363;SDS011;6246;50.826;4.712;2023-03-31T17:52:42;2.07;;;1.40;;
12363;SDS011;6246;50.826;4.712;2023-03-31T17:55:08;2.50;;;1.27;;
12363;SDS011;6246;50.826;4.712;2023-03-31T17:57:35;3.07;;;1.40;;
12363;SDS011;6246;50.826;4.712;2023-03-31T18:00:02;2.57;;;1.03;;
12363;SDS011;6246;50.826;4.712;2023-03-31T18:02:28;3.00;;;1.07;;
12363;SDS011;6246;50.826;4.712;2023-03-31T18:04:54;2.10;;;1.30;;
12363;SDS011;6246;50.826;4.712;2023-03-31T18:07:20;4.87;;;1.33;;
12363;SDS011;6246;50.826;4.712;2023-03-31T18:09:47;4.07;;;1.60;;
12363;SDS011;6246;50.826;4.712;2023-03-31T18:12:13;3.50;;;1.10;;
12363;SDS011;6246;50.826;4.712;2023-03-31T18:14:40;3.37;;;1.60;;